This is the latest recevied weather packets stored in our database for station/object CX2SA-13. If no packets are shown the sender has not sent any weather packets the latest 10 day(s).
| Time | Temp. | Humidity | Pressure | Rain* | Wind** | Luminosity | Snow |
|---|---|---|---|---|---|---|---|
| 1778158785 | 17.78° C | 97% | 997.2 hPa | 22.61 mm | - | - | - |
| 1778157884 | 17.78° C | 97% | 997.6 hPa | 18.29 mm | - | - | - |
| 1778156985 | 17.78° C | 97% | 996.9 hPa | 16.51 mm | - | - | - |
| 1778156086 | 17.78° C | 97% | 997.2 hPa | 16.26 mm | - | - | - |
| 1778155184 | 18.33° C | 97% | 996.9 hPa | 13.97 mm | - | - | - |
| 1778154285 | 20° C | 96% | 997.2 hPa | 7.37 mm | - | - | - |
| 1778153386 | 24.44° C | 92% | 994.5 hPa | 1.27 mm | - | - | - |
| 1778152485 | 26.67° C | 81% | 995.2 hPa | 0 mm | - | - | - |
| 1778151585 | 26.67° C | 81% | 995.6 hPa | 0 mm | - | - | - |
| 1778150684 | 26.67° C | 81% | 995.2 hPa | 0 mm | - | - | - |
| 1778149784 | 26.67° C | 81% | 994.5 hPa | 0 mm | - | - | - |
| 1778148885 | 26.67° C | 81% | 994.5 hPa | 0 mm | - | - | - |
| 1778147984 | 26.67° C | 82% | 994.5 hPa | 0 mm | - | - | - |
| 1778147085 | 26.11° C | 82% | 994.2 hPa | 0 mm | - | - | - |
| 1778146186 | 26.11° C | 82% | 994.9 hPa | 0 mm | - | - | - |
| 1778145284 | 26.11° C | 82% | 994.9 hPa | 0 mm | - | - | - |
| 1778144385 | 26.11° C | 82% | 995.2 hPa | 0 mm | - | - | - |
| 1778143486 | 26.67° C | 82% | 995.6 hPa | 0 mm | - | - | - |
| 1778142584 | 26.11° C | 82% | 995.6 hPa | 0 mm | - | - | - |
| 1778141685 | 26.11° C | 83% | 996.2 hPa | 0 mm | - | - | - |
| 1778140784 | 26.11° C | 83% | 996.6 hPa | 0 mm | - | - | - |
| 1778139884 | 26.11° C | 83% | 996.6 hPa | 0 mm | - | - | - |
| 1778138985 | 26.11° C | 84% | 996.9 hPa | 0 mm | - | - | - |
| 1778138084 | 25.56° C | 86% | 997.2 hPa | 0 mm | - | - | - |
| 1778137185 | 25° C | 88% | 997.6 hPa | 0 mm | - | - | - |
* Rain since midnight (hover to see other rain measurements)
** Current wind speed in m/s (hover to see current wind gust speed)